createdAt,value
2022-08-07T00:00:55.568Z,15.30
2022-08-07T00:03:36.911Z,15.26
2022-08-07T00:06:05.099Z,15.21
2022-08-07T00:08:33.471Z,15.19
2022-08-07T00:11:06.474Z,15.15
2022-08-07T00:13:44.892Z,15.12
2022-08-07T00:16:17.406Z,15.08
2022-08-07T00:18:49.633Z,15.05
2022-08-07T00:21:57.334Z,15.02
2022-08-07T00:24:06.130Z,14.98
2022-08-07T00:26:58.639Z,14.93
2022-08-07T00:29:34.281Z,14.89
2022-08-07T00:32:06.991Z,14.84
2022-08-07T00:34:35.525Z,14.80
2022-08-07T00:37:05.192Z,14.73
2022-08-07T00:39:34.941Z,14.67
2022-08-07T00:42:05.219Z,14.61
2022-08-07T00:44:34.922Z,14.55
2022-08-07T00:47:15.594Z,14.49
2022-08-07T00:50:19.654Z,14.41
2022-08-07T00:52:51.513Z,14.36
2022-08-07T00:55:46.590Z,14.32
2022-08-07T00:58:09.012Z,14.26
2022-08-07T01:00:37.134Z,14.23
2022-08-07T01:03:05.219Z,14.18
2022-08-07T01:05:36.560Z,14.13
2022-08-07T01:08:06.214Z,14.09
2022-08-07T01:10:39.385Z,14.06
2022-08-07T01:13:16.367Z,14.02
2022-08-07T01:16:01.189Z,13.98
2022-08-07T01:18:34.914Z,13.94
2022-08-07T01:21:22.748Z,13.90
2022-08-07T01:23:55.351Z,13.85
2022-08-07T01:26:26.088Z,13.83
2022-08-07T01:28:55.162Z,13.80
2022-08-07T01:31:30.025Z,13.77
2022-08-07T01:34:10.499Z,13.73
2022-08-07T01:36:40.426Z,13.70
2022-08-07T01:39:10.255Z,13.66
2022-08-07T01:42:07.359Z,13.61
2022-08-07T01:44:28.768Z,13.56
2022-08-07T01:46:57.587Z,13.51
2022-08-07T01:49:29.134Z,13.46
2022-08-07T01:52:04.921Z,13.42
2022-08-07T01:54:37.590Z,13.37
2022-08-07T01:57:26.671Z,13.32
2022-08-07T02:00:12.960Z,13.24
2022-08-07T02:03:18.136Z,13.19
2022-08-07T02:05:59.982Z,13.13
2022-08-07T02:08:31.032Z,13.08
2022-08-07T02:11:00.922Z,13.02
2022-08-07T02:13:56.766Z,12.96
2022-08-07T02:16:28.783Z,12.92
2022-08-07T02:19:05.534Z,12.86
2022-08-07T02:21:58.726Z,12.81
2022-08-07T02:24:30.050Z,12.76
2022-08-07T02:27:02.447Z,12.72
2022-08-07T02:29:32.455Z,12.68
2022-08-07T02:32:04.388Z,12.64
2022-08-07T02:34:34.311Z,12.59
2022-08-07T02:37:08.728Z,12.55
2022-08-07T02:39:43.719Z,12.52
2022-08-07T02:42:30.568Z,12.47
2022-08-07T02:45:07.208Z,12.44
2022-08-07T02:47:49.084Z,12.41
2022-08-07T02:50:17.619Z,12.38
2022-08-07T02:53:06.528Z,12.36
2022-08-07T02:56:03.371Z,12.36
2022-08-07T02:58:33.946Z,12.34
2022-08-07T03:01:03.537Z,12.32
2022-08-07T03:03:49.540Z,12.30
2022-08-07T03:06:32.075Z,12.27
2022-08-07T03:09:03.086Z,12.25
2022-08-07T03:11:38.697Z,12.24
2022-08-07T03:14:07.670Z,12.21
2022-08-07T03:16:36.062Z,12.19
2022-08-07T03:19:06.799Z,12.16
2022-08-07T03:21:37.311Z,12.14
2022-08-07T03:24:20.465Z,12.12
2022-08-07T03:26:58.977Z,12.09
2022-08-07T03:29:37.774Z,12.07
2022-08-07T03:32:13.435Z,12.05
2022-08-07T03:34:47.419Z,12.04
2022-08-07T03:37:45.874Z,12.02
2022-08-07T03:40:16.894Z,11.99
2022-08-07T03:42:45.377Z,11.97
2022-08-07T03:45:30.031Z,11.96
2022-08-07T03:47:59.818Z,11.97
2022-08-07T03:50:28.984Z,11.98
2022-08-07T03:53:01.452Z,11.99
2022-08-07T03:55:52.919Z,11.99
2022-08-07T03:59:05.452Z,12.02
2022-08-07T04:01:13.892Z,12.04
2022-08-07T04:03:49.766Z,12.05
2022-08-07T04:06:36.254Z,12.06
2022-08-07T04:09:08.462Z,12.08
2022-08-07T04:12:25.107Z,12.09
2022-08-07T04:14:43.950Z,12.12
2022-08-07T04:17:19.928Z,12.15
2022-08-07T04:19:53.990Z,12.18
2022-08-07T04:22:28.995Z,12.23
2022-08-07T04:25:01.198Z,12.28
2022-08-07T04:27:35.420Z,12.35
2022-08-07T04:30:11.722Z,12.39
2022-08-07T04:32:44.766Z,12.43
2022-08-07T04:35:15.937Z,12.49
2022-08-07T04:38:02.850Z,12.57
2022-08-07T04:40:32.301Z,12.72
2022-08-07T04:43:01.856Z,12.83
2022-08-07T04:46:01.064Z,12.89
2022-08-07T04:48:51.035Z,12.96
2022-08-07T04:51:28.813Z,13.03
2022-08-07T04:54:08.497Z,13.11
2022-08-07T04:58:16.043Z,13.18
2022-08-07T05:00:13.130Z,13.27
2022-08-07T05:03:17.081Z,13.31
2022-08-07T05:06:19.699Z,13.35
2022-08-07T05:09:17.069Z,13.39
2022-08-07T05:12:10.493Z,13.44
2022-08-07T05:14:54.301Z,13.51
2022-08-07T05:17:52.968Z,13.59
2022-08-07T05:20:26.914Z,13.71
2022-08-07T05:23:00.256Z,13.80
2022-08-07T05:25:54.452Z,13.89
2022-08-07T05:28:23.356Z,13.98
2022-08-07T05:30:57.137Z,14.07
2022-08-07T05:33:27.665Z,14.16
2022-08-07T05:35:56.901Z,14.24
2022-08-07T05:38:59.849Z,14.32
2022-08-07T05:41:16.817Z,14.42
2022-08-07T05:44:12.268Z,14.52
2022-08-07T05:46:38.534Z,14.61
2022-08-07T05:49:13.080Z,14.69
2022-08-07T05:51:46.248Z,14.76
2022-08-07T05:54:30.785Z,14.83
2022-08-07T05:57:06.896Z,14.92
2022-08-07T05:59:58.073Z,15.01
2022-08-07T06:02:30.682Z,15.11
2022-08-07T06:05:15.449Z,15.22
2022-08-07T06:08:09.094Z,15.32
2022-08-07T06:10:42.594Z,15.42
2022-08-07T06:13:13.571Z,15.52
2022-08-07T06:15:45.746Z,15.61
2022-08-07T06:18:18.880Z,15.71
2022-08-07T06:20:50.496Z,15.80
2022-08-07T06:24:36.858Z,15.91
2022-08-07T06:26:27.427Z,16.01
2022-08-07T06:29:06.538Z,16.13
2022-08-07T06:31:46.580Z,16.23
2022-08-07T06:34:20.430Z,16.32
2022-08-07T06:36:51.824Z,16.42
2022-08-07T06:40:17.601Z,16.51
2022-08-07T06:42:34.836Z,16.60
2022-08-07T06:45:07.361Z,16.67
2022-08-07T06:47:57.049Z,16.75
2022-08-07T06:50:26.763Z,16.83
2022-08-07T06:52:56.760Z,16.93
2022-08-07T06:55:53.432Z,17.02
2022-08-07T06:58:21.309Z,17.12
2022-08-07T07:00:52.982Z,17.21
2022-08-07T07:03:39.633Z,17.31
2022-08-07T07:06:11.415Z,17.41
2022-08-07T07:08:39.863Z,17.51
2022-08-07T07:12:07.646Z,17.59
2022-08-07T07:14:04.208Z,17.67
2022-08-07T07:16:49.615Z,17.70
2022-08-07T07:19:55.948Z,17.74
2022-08-07T07:22:39.754Z,17.79
2022-08-07T07:26:33.920Z,17.86
2022-08-07T07:28:29.696Z,17.93
2022-08-07T07:31:17.338Z,17.98
2022-08-07T07:33:57.238Z,18.02
2022-08-07T07:36:34.288Z,18.09
2022-08-07T07:39:04.911Z,18.17
2022-08-07T07:42:02.136Z,18.21
2022-08-07T07:44:26.495Z,18.30
2022-08-07T07:47:01.234Z,18.36
2022-08-07T07:50:35.973Z,18.46
2022-08-07T07:52:31.586Z,18.53
2022-08-07T07:55:01.131Z,18.50
2022-08-07T07:57:52.133Z,18.49
2022-08-07T08:00:29.629Z,18.49
2022-08-07T08:03:08.696Z,18.45
2022-08-07T08:05:42.899Z,18.46
2022-08-07T08:08:37.017Z,18.53
2022-08-07T08:11:16.256Z,18.48
2022-08-07T08:13:57.808Z,18.40
2022-08-07T08:16:39.775Z,18.29
2022-08-07T08:19:17.613Z,18.35
2022-08-07T08:22:20.184Z,18.56
2022-08-07T08:25:24.808Z,18.78
2022-08-07T08:28:05.947Z,19.02
2022-08-07T08:30:37.461Z,19.19
2022-08-07T08:33:20.656Z,19.31
2022-08-07T08:36:12.817Z,19.28
2022-08-07T08:38:49.941Z,19.17
2022-08-07T08:41:31.559Z,19.17
2022-08-07T08:44:48.299Z,19.23
2022-08-07T08:47:57.576Z,19.29
2022-08-07T08:50:40.550Z,19.39
2022-08-07T08:53:26.554Z,19.52
2022-08-07T08:56:29.042Z,19.64
2022-08-07T08:59:12.717Z,19.77
2022-08-07T09:01:59.772Z,19.87
2022-08-07T09:05:14.666Z,20.00
2022-08-07T09:07:58.210Z,20.21
2022-08-07T09:11:03.425Z,20.32
2022-08-07T09:13:59.242Z,20.30
2022-08-07T09:16:47.600Z,20.20
2022-08-07T09:19:51.441Z,20.05
2022-08-07T09:24:30.995Z,20.05
2022-08-07T09:25:53.423Z,20.10
2022-08-07T09:30:05.931Z,20.13
2022-08-07T09:31:49.431Z,20.14
2022-08-07T09:34:27.250Z,20.26
2022-08-07T09:37:07.619Z,20.42
2022-08-07T09:39:54.533Z,20.56
2022-08-07T09:42:51.328Z,20.47
2022-08-07T09:47:51.765Z,20.37
2022-08-07T09:50:01.160Z,20.41
2022-08-07T09:52:53.994Z,20.59
2022-08-07T09:56:03.913Z,20.69
2022-08-07T09:59:07.630Z,20.67
2022-08-07T10:02:05.646Z,20.57
2022-08-07T10:05:12.586Z,20.68
2022-08-07T10:08:10.378Z,20.86
2022-08-07T10:11:17.177Z,21.03
2022-08-07T10:14:22.720Z,21.14
2022-08-07T10:17:13.419Z,21.00
2022-08-07T10:20:37.165Z,20.80
2022-08-07T10:24:05.311Z,20.53
2022-08-07T10:26:53.482Z,20.42
2022-08-07T10:29:45.887Z,20.49
2022-08-07T10:32:52.463Z,20.66
2022-08-07T10:35:55.673Z,20.88
2022-08-07T10:38:36.169Z,21.04
2022-08-07T10:42:00.369Z,21.13
2022-08-07T10:44:50.099Z,21.08
2022-08-07T10:47:52.854Z,21.05
2022-08-07T10:50:58.460Z,21.06
2022-08-07T10:54:14.848Z,21.04
2022-08-07T10:57:03.583Z,20.95
2022-08-07T11:00:55.894Z,20.99
2022-08-07T11:03:52.550Z,21.13
2022-08-07T11:06:41.920Z,21.26
2022-08-07T11:10:09.563Z,21.37
2022-08-07T11:12:45.497Z,21.42
2022-08-07T11:15:26.278Z,21.47
2022-08-07T11:18:27.576Z,21.47
2022-08-07T11:21:10.355Z,21.38
2022-08-07T11:24:15.100Z,21.34
2022-08-07T11:27:01.783Z,21.31
2022-08-07T11:29:42.943Z,21.26
2022-08-07T11:32:25.648Z,21.17
2022-08-07T11:34:58.727Z,21.10
2022-08-07T11:37:38.710Z,21.18
2022-08-07T11:40:51.729Z,21.32
2022-08-07T11:44:10.779Z,21.48
2022-08-07T11:47:12.662Z,21.66
2022-08-07T11:50:32.704Z,21.85
2022-08-07T11:53:27.869Z,22.05
2022-08-07T11:57:02.056Z,22.21
2022-08-07T12:00:11.373Z,22.29
2022-08-07T12:03:41.482Z,22.21
2022-08-07T12:07:01.042Z,22.12
2022-08-07T12:10:17.153Z,22.21
2022-08-07T12:13:11.562Z,22.28
2022-08-07T12:16:06.249Z,22.23
2022-08-07T12:19:14.629Z,22.18
2022-08-07T12:22:39.593Z,22.29
2022-08-07T12:26:03.106Z,22.42
2022-08-07T12:29:01.669Z,22.54
2022-08-07T12:32:15.250Z,22.62
2022-08-07T12:35:36.323Z,22.72
2022-08-07T12:38:57.503Z,22.77
2022-08-07T12:42:16.355Z,22.77
2022-08-07T12:45:04.472Z,22.63
2022-08-07T12:48:27.717Z,22.49
2022-08-07T12:52:12.035Z,22.39
2022-08-07T12:55:16.443Z,22.44
2022-08-07T12:58:01.349Z,22.54
2022-08-07T13:01:18.959Z,22.57
2022-08-07T13:04:02.741Z,22.68
2022-08-07T13:07:02.260Z,22.76
2022-08-07T13:10:28.564Z,22.77
2022-08-07T13:13:51.115Z,22.84
2022-08-07T13:17:07.729Z,22.92
2022-08-07T13:20:30.953Z,22.98
2022-08-07T13:24:02.052Z,23.04
2022-08-07T13:26:16.060Z,23.06
2022-08-07T13:29:15.197Z,22.97
2022-08-07T13:31:57.570Z,22.92
2022-08-07T13:34:53.057Z,22.96
2022-08-07T13:37:59.173Z,23.01
2022-08-07T13:40:49.555Z,23.08
2022-08-07T13:43:57.528Z,23.15
2022-08-07T13:46:48.868Z,23.29
2022-08-07T13:50:34.309Z,23.37
2022-08-07T13:52:32.271Z,23.39
2022-08-07T13:55:10.769Z,23.34
2022-08-07T13:57:59.125Z,23.28
2022-08-07T14:00:50.441Z,23.20
2022-08-07T14:04:07.311Z,23.12
2022-08-07T14:06:23.093Z,22.99
2022-08-07T14:10:00.482Z,22.90
2022-08-07T14:12:10.334Z,22.93
2022-08-07T14:14:44.161Z,22.96
2022-08-07T14:18:13.062Z,23.00
2022-08-07T14:20:43.382Z,23.02
2022-08-07T14:23:31.498Z,23.01
2022-08-07T14:26:30.621Z,23.01
2022-08-07T14:30:05.011Z,23.04
2022-08-07T14:32:28.193Z,23.04
2022-08-07T14:35:07.026Z,22.98
2022-08-07T14:37:39.969Z,22.89
2022-08-07T14:40:26.251Z,22.88
2022-08-07T14:46:12.452Z,22.99
2022-08-07T14:48:48.471Z,23.02
2022-08-07T14:52:03.690Z,23.03
2022-08-07T14:57:55.227Z,22.96
2022-08-07T15:00:30.288Z,22.90
2022-08-07T15:05:55.214Z,22.86
2022-08-07T15:08:47.550Z,22.82
2022-08-07T15:12:01.242Z,22.76
2022-08-07T15:14:36.064Z,22.73
2022-08-07T15:17:54.974Z,22.73
2022-08-07T15:21:44.151Z,22.79
2022-08-07T15:25:17.639Z,22.79
2022-08-07T15:28:34.412Z,22.84
2022-08-07T15:32:01.767Z,22.90
2022-08-07T15:34:18.600Z,22.94
2022-08-07T15:37:04.055Z,22.93
2022-08-07T15:39:57.438Z,22.95
2022-08-07T15:45:57.321Z,23.05
2022-08-07T15:49:03.464Z,23.09
2022-08-07T15:54:47.596Z,23.10
2022-08-07T15:57:39.906Z,23.09
2022-08-07T16:01:20.156Z,23.08
2022-08-07T16:04:34.971Z,23.04
2022-08-07T16:08:33.055Z,22.99
2022-08-07T16:11:55.174Z,22.90
2022-08-07T16:15:58.202Z,22.87
2022-08-07T16:19:16.732Z,22.80
2022-08-07T16:22:05.070Z,22.73
2022-08-07T16:25:23.431Z,22.71
2022-08-07T16:32:34.605Z,22.72
2022-08-07T16:35:58.387Z,22.81
2022-08-07T16:39:49.165Z,22.83
2022-08-07T16:44:04.056Z,22.84
2022-08-07T16:47:38.682Z,22.83
2022-08-07T16:52:01.722Z,22.72
2022-08-07T16:55:13.289Z,22.64
2022-08-07T16:59:10.198Z,22.59
2022-08-07T17:02:52.894Z,22.65
2022-08-07T17:06:29.849Z,22.83
2022-08-07T17:10:32.791Z,22.96
2022-08-07T17:14:19.218Z,22.84
2022-08-07T17:17:46.192Z,22.62
2022-08-07T17:28:38.789Z,21.79
2022-08-07T17:32:52.420Z,21.52
2022-08-07T17:46:35.204Z,20.59
2022-08-07T17:50:16.487Z,20.39
2022-08-07T17:54:00.188Z,20.17
2022-08-07T18:12:06.990Z,19.12
2022-08-07T18:15:53.903Z,18.88
2022-08-07T18:38:53.718Z,17.80
2022-08-07T18:41:16.933Z,17.60
2022-08-07T18:45:40.171Z,17.46
2022-08-07T18:50:05.547Z,17.30
2022-08-07T18:52:52.772Z,17.14
2022-08-07T18:56:32.167Z,16.99
2022-08-07T18:59:59.528Z,16.86
2022-08-07T19:03:44.904Z,16.74
2022-08-07T19:07:34.553Z,16.63
2022-08-07T19:11:35.703Z,16.51
2022-08-07T19:16:02.327Z,16.40
2022-08-07T19:19:00.890Z,16.28
2022-08-07T19:22:32.317Z,16.18
2022-08-07T19:26:22.967Z,16.07
2022-08-07T19:31:06.375Z,15.97
2022-08-07T19:33:19.314Z,15.88
2022-08-07T19:37:17.067Z,15.78
2022-08-07T19:40:49.309Z,15.69
2022-08-07T19:54:56.176Z,15.38
2022-08-07T19:58:13.378Z,15.29
2022-08-07T20:01:11.368Z,15.23
2022-08-07T20:04:31.569Z,15.16
2022-08-07T20:08:06.329Z,15.09
2022-08-07T20:12:23.426Z,15.03
2022-08-07T20:15:00.529Z,14.97
2022-08-07T20:18:14.787Z,14.93
2022-08-07T20:21:29.199Z,14.86
2022-08-07T20:25:03.581Z,14.79
2022-08-07T20:28:34.972Z,14.73
2022-08-07T20:32:11.483Z,14.68
2022-08-07T20:36:03.107Z,14.67
2022-08-07T20:49:58.080Z,14.60
2022-08-07T20:53:12.004Z,14.58
2022-08-07T21:37:23.583Z,13.89
2022-08-07T21:40:51.169Z,13.85
2022-08-07T21:44:28.447Z,13.82
2022-08-07T21:47:50.310Z,13.76
2022-08-07T21:51:08.356Z,13.72
2022-08-07T21:54:34.778Z,13.69
2022-08-07T21:57:59.696Z,13.67
2022-08-07T22:00:59.722Z,13.63
2022-08-07T22:04:06.542Z,13.60
2022-08-07T22:07:57.947Z,13.58
2022-08-07T22:11:02.606Z,13.55
2022-08-07T22:13:58.608Z,13.53
2022-08-07T22:17:13.198Z,13.50
2022-08-07T22:20:27.849Z,13.47
2022-08-07T22:23:41.642Z,13.44
2022-08-07T22:26:50.517Z,13.41
2022-08-07T22:30:12.648Z,13.38
2022-08-07T22:33:12.058Z,13.35
2022-08-07T22:36:46.306Z,13.32
2022-08-07T22:40:22.514Z,13.26
2022-08-07T22:43:14.167Z,13.21
2022-08-07T22:47:02.507Z,13.17
2022-08-07T22:49:55.283Z,13.15
2022-08-07T22:52:54.018Z,13.12
2022-08-07T22:55:47.717Z,13.10
2022-08-07T22:58:43.094Z,13.08
2022-08-07T23:01:59.023Z,13.06
2022-08-07T23:06:09.870Z,13.04
2022-08-07T23:08:45.829Z,13.02
2022-08-07T23:12:06.265Z,12.99
2022-08-07T23:16:05.738Z,12.95
2022-08-07T23:19:48.011Z,12.93
2022-08-07T23:23:15.026Z,12.89
2022-08-07T23:26:33.515Z,12.87
2022-08-07T23:29:44.018Z,12.85
2022-08-07T23:34:33.968Z,12.81
2022-08-07T23:36:43.221Z,12.78
2022-08-07T23:39:48.227Z,12.77
2022-08-07T23:43:07.641Z,12.76
2022-08-07T23:46:03.230Z,12.74
2022-08-07T23:49:05.940Z,12.75
2022-08-07T23:53:02.156Z,12.77
2022-08-07T23:55:01.567Z,12.76
2022-08-07T23:58:04.341Z,12.73
